sensor_id;sensor_type;location;lat;lon;timestamp;pressure;altitude;pressure_sealevel;temperature;humidity
57234;BME280;43090;52.604;13.318;2023-04-01T00:01:11;99133.75;;;10.14;100.00
57234;BME280;43090;52.604;13.318;2023-04-01T00:03:40;99136.84;;;10.09;100.00
57234;BME280;43090;52.604;13.318;2023-04-01T00:06:07;99139.50;;;10.09;100.00
57234;BME280;43090;52.604;13.318;2023-04-01T00:08:33;99141.06;;;10.12;100.00
57234;BME280;43090;52.604;13.318;2023-04-01T00:11:00;99136.84;;;10.09;100.00
57234;BME280;43090;52.604;13.318;2023-04-01T00:13:26;99138.38;;;10.12;100.00
57234;BME280;43090;52.604;13.318;2023-04-01T00:15:53;99131.50;;;10.09;100.00
57234;BME280;43090;52.604;13.318;2023-04-01T00:18:21;99137.41;;;10.13;100.00
57234;BME280;43090;52.604;13.318;2023-04-01T00:20:48;99144.47;;;10.04;100.00
57234;BME280;43090;52.604;13.318;2023-04-01T00:23:15;99142.19;;;10.09;100.00
57234;BME280;43090;52.604;13.318;2023-04-01T00:25:42;99129.84;;;10.08;100.00
57234;BME280;43090;52.604;13.318;2023-04-01T00:28:08;99134.78;;;10.03;100.00
57234;BME280;43090;52.604;13.318;2023-04-01T00:30:35;99136.88;;;9.99;100.00
57234;BME280;43090;52.604;13.318;2023-04-01T00:33:01;99138.56;;;10.00;100.00
57234;BME280;43090;52.604;13.318;2023-04-01T00:35:28;99133.38;;;9.99;100.00
57234;BME280;43090;52.604;13.318;2023-04-01T00:37:55;99132.34;;;10.10;100.00
57234;BME280;43090;52.604;13.318;2023-04-01T00:40:28;99136.31;;;9.96;100.00
57234;BME280;43090;52.604;13.318;2023-04-01T00:42:55;99133.78;;;9.94;100.00
57234;BME280;43090;52.604;13.318;2023-04-01T00:45:30;99135.63;;;9.94;100.00
57234;BME280;43090;52.604;13.318;2023-04-01T00:47:58;99131.00;;;9.86;100.00
57234;BME280;43090;52.604;13.318;2023-04-01T00:50:25;99134.38;;;9.88;100.00
57234;BME280;43090;52.604;13.318;2023-04-01T00:52:52;99136.06;;;9.89;100.00
57234;BME280;43090;52.604;13.318;2023-04-01T00:55:19;99135.50;;;9.95;100.00
57234;BME280;43090;52.604;13.318;2023-04-01T00:57:47;99138.44;;;10.02;100.00
57234;BME280;43090;52.604;13.318;2023-04-01T01:00:15;99138.84;;;10.07;100.00
57234;BME280;43090;52.604;13.318;2023-04-01T01:02:43;99139.81;;;10.06;100.00
57234;BME280;43090;52.604;13.318;2023-04-01T01:05:14;99142.78;;;10.03;100.00
57234;BME280;43090;52.604;13.318;2023-04-01T01:07:58;99140.28;;;9.92;100.00
57234;BME280;43090;52.604;13.318;2023-04-01T01:10:31;99144.19;;;9.97;100.00
57234;BME280;43090;52.604;13.318;2023-04-01T01:18:09;99139.44;;;9.91;100.00
57234;BME280;43090;52.604;13.318;2023-04-01T01:20:49;99143.13;;;9.80;100.00
57234;BME280;43090;52.604;13.318;2023-04-01T01:23:29;99140.72;;;9.87;100.00
57234;BME280;43090;52.604;13.318;2023-04-01T01:28:49;99141.25;;;9.91;100.00
57234;BME280;43090;52.604;13.318;2023-04-01T01:31:27;99143.38;;;9.77;100.00
57234;BME280;43090;52.604;13.318;2023-04-01T01:36:29;99150.69;;;9.85;100.00
57234;BME280;43090;52.604;13.318;2023-04-01T01:38:57;99155.47;;;9.91;100.00
57234;BME280;43090;52.604;13.318;2023-04-01T01:41:24;99153.78;;;9.90;100.00
57234;BME280;43090;52.604;13.318;2023-04-01T01:43:52;99151.84;;;9.92;100.00
57234;BME280;43090;52.604;13.318;2023-04-01T01:46:20;99145.34;;;9.95;100.00
57234;BME280;43090;52.604;13.318;2023-04-01T01:48:48;99150.81;;;9.93;100.00
57234;BME280;43090;52.604;13.318;2023-04-01T01:51:19;99153.22;;;9.87;100.00
57234;BME280;43090;52.604;13.318;2023-04-01T01:53:46;99156.31;;;9.92;100.00
57234;BME280;43090;52.604;13.318;2023-04-01T01:56:13;99157.72;;;9.96;100.00
57234;BME280;43090;52.604;13.318;2023-04-01T01:58:42;99148.72;;;9.97;100.00
57234;BME280;43090;52.604;13.318;2023-04-01T02:01:31;99150.81;;;9.93;100.00
57234;BME280;43090;52.604;13.318;2023-04-01T02:03:56;99162.22;;;9.95;100.00
57234;BME280;43090;52.604;13.318;2023-04-01T02:06:25;99154.19;;;9.95;100.00
57234;BME280;43090;52.604;13.318;2023-04-01T02:08:55;99149.53;;;9.97;100.00
57234;BME280;43090;52.604;13.318;2023-04-01T02:11:25;99155.28;;;10.03;100.00
57234;BME280;43090;52.604;13.318;2023-04-01T02:13:58;99159.56;;;9.95;100.00
57234;BME280;43090;52.604;13.318;2023-04-01T02:16:28;99162.06;;;9.97;100.00
57234;BME280;43090;52.604;13.318;2023-04-01T02:18:58;99153.78;;;9.90;100.00
57234;BME280;43090;52.604;13.318;2023-04-01T02:21:27;99156.31;;;9.92;100.00
57234;BME280;43090;52.604;13.318;2023-04-01T02:23:55;99162.53;;;9.92;100.00
57234;BME280;43090;52.604;13.318;2023-04-01T02:26:23;99164.19;;;9.93;100.00
57234;BME280;43090;52.604;13.318;2023-04-01T02:28:52;99159.16;;;9.80;100.00
57234;BME280;43090;52.604;13.318;2023-04-01T02:31:21;99155.75;;;9.88;100.00
57234;BME280;43090;52.604;13.318;2023-04-01T02:33:47;99163.91;;;9.87;100.00
57234;BME280;43090;52.604;13.318;2023-04-01T02:36:14;99161.53;;;9.83;100.00
57234;BME280;43090;52.604;13.318;2023-04-01T02:38:42;99169.13;;;9.88;100.00
57234;BME280;43090;52.604;13.318;2023-04-01T02:41:08;99162.94;;;9.88;100.00
57234;BME280;43090;52.604;13.318;2023-04-01T02:43:35;99172.34;;;9.92;100.00
57234;BME280;43090;52.604;13.318;2023-04-01T02:46:01;99171.09;;;9.86;100.00
57234;BME280;43090;52.604;13.318;2023-04-01T02:48:28;99169.56;;;9.83;100.00
57234;BME280;43090;52.604;13.318;2023-04-01T02:50:54;99167.59;;;9.86;100.00
57234;BME280;43090;52.604;13.318;2023-04-01T02:53:21;99175.06;;;9.82;100.00
57234;BME280;43090;52.604;13.318;2023-04-01T02:55:47;99175.19;;;9.80;100.00
57234;BME280;43090;52.604;13.318;2023-04-01T02:58:16;99179.97;;;9.77;100.00
57234;BME280;43090;52.604;13.318;2023-04-01T03:00:43;99181.94;;;9.75;100.00
57234;BME280;43090;52.604;13.318;2023-04-01T03:03:09;99186.31;;;9.76;100.00
57234;BME280;43090;52.604;13.318;2023-04-01T03:05:36;99189.81;;;9.76;100.00
57234;BME280;43090;52.604;13.318;2023-04-01T03:08:02;99181.78;;;9.76;100.00
57234;BME280;43090;52.604;13.318;2023-04-01T03:10:29;99186.47;;;9.64;100.00
57234;BME280;43090;52.604;13.318;2023-04-01T03:12:56;99185.34;;;9.57;100.00
57234;BME280;43090;52.604;13.318;2023-04-01T03:15:22;99184.47;;;9.66;100.00
57234;BME280;43090;52.604;13.318;2023-04-01T03:17:48;99185.88;;;9.71;100.00
57234;BME280;43090;52.604;13.318;2023-04-01T03:20:15;99187.03;;;9.78;100.00
57234;BME280;43090;52.604;13.318;2023-04-01T03:22:41;99182.66;;;9.77;100.00
57234;BME280;43090;52.604;13.318;2023-04-01T03:25:08;99188.69;;;9.79;100.00
57234;BME280;43090;52.604;13.318;2023-04-01T03:27:36;99193.50;;;9.75;100.00
57234;BME280;43090;52.604;13.318;2023-04-01T03:30:03;99195.72;;;9.80;100.00
57234;BME280;43090;52.604;13.318;2023-04-01T03:32:29;99197.13;;;9.84;100.00
57234;BME280;43090;52.604;13.318;2023-04-01T03:34:56;99196.16;;;9.85;100.00
57234;BME280;43090;52.604;13.318;2023-04-01T03:37:23;99198.00;;;9.84;100.00
57234;BME280;43090;52.604;13.318;2023-04-01T03:39:49;99199.94;;;9.82;100.00
57234;BME280;43090;52.604;13.318;2023-04-01T03:42:15;99199.94;;;9.82;100.00
57234;BME280;43090;52.604;13.318;2023-04-01T03:44:42;99205.00;;;9.76;100.00
57234;BME280;43090;52.604;13.318;2023-04-01T03:47:08;99205.16;;;9.84;100.00
57234;BME280;43090;52.604;13.318;2023-04-01T03:49:35;99201.78;;;9.82;100.00
57234;BME280;43090;52.604;13.318;2023-04-01T03:52:02;99212.03;;;9.87;100.00
57234;BME280;43090;52.604;13.318;2023-04-01T03:54:28;99210.06;;;9.89;100.00
57234;BME280;43090;52.604;13.318;2023-04-01T03:56:54;99220.06;;;9.87;100.00
57234;BME280;43090;52.604;13.318;2023-04-01T03:59:23;99212.88;;;9.77;100.00
57234;BME280;43090;52.604;13.318;2023-04-01T04:01:50;99211.50;;;9.83;100.00
57234;BME280;43090;52.604;13.318;2023-04-01T04:04:16;99216.56;;;9.86;100.00
57234;BME280;43090;52.604;13.318;2023-04-01T04:06:43;99219.22;;;9.86;100.00
57234;BME280;43090;52.604;13.318;2023-04-01T04:09:10;99225.25;;;9.88;100.00
57234;BME280;43090;52.604;13.318;2023-04-01T04:11:36;99216.97;;;9.81;100.00
57234;BME280;43090;52.604;13.318;2023-04-01T04:14:03;99216.28;;;9.79;100.00
57234;BME280;43090;52.604;13.318;2023-04-01T04:16:29;99224.41;;;9.88;100.00
57234;BME280;43090;52.604;13.318;2023-04-01T04:18:56;99228.22;;;9.85;100.00
57234;BME280;43090;52.604;13.318;2023-04-01T04:21:22;99228.22;;;9.85;100.00
57234;BME280;43090;52.604;13.318;2023-04-01T04:23:48;99227.25;;;9.86;100.00
57234;BME280;43090;52.604;13.318;2023-04-01T04:26:15;99227.94;;;9.88;100.00
57234;BME280;43090;52.604;13.318;2023-04-01T04:28:41;99233.56;;;9.85;100.00
57234;BME280;43090;52.604;13.318;2023-04-01T04:31:08;99233.72;;;9.83;100.00
57234;BME280;43090;52.604;13.318;2023-04-01T04:33:35;99233.56;;;9.85;100.00
57234;BME280;43090;52.604;13.318;2023-04-01T04:36:02;99240.19;;;9.81;100.00
57234;BME280;43090;52.604;13.318;2023-04-01T04:38:29;99246.38;;;9.81;100.00
57234;BME280;43090;52.604;13.318;2023-04-01T04:40:55;99236.53;;;9.82;100.00
57234;BME280;43090;52.604;13.318;2023-04-01T04:43:21;99242.13;;;9.79;100.00
57234;BME280;43090;52.604;13.318;2023-04-01T04:45:48;99244.97;;;9.67;100.00
57234;BME280;43090;52.604;13.318;2023-04-01T04:48:15;99238.34;;;9.72;100.00
57234;BME280;43090;52.604;13.318;2023-04-01T04:50:55;99244.81;;;9.79;100.00
57234;BME280;43090;52.604;13.318;2023-04-01T04:53:21;99249.47;;;9.77;100.00
57234;BME280;43090;52.604;13.318;2023-04-01T04:55:48;99251.56;;;9.73;100.00
57234;BME280;43090;52.604;13.318;2023-04-01T04:58:15;99251.16;;;9.78;100.00
57234;BME280;43090;52.604;13.318;2023-04-01T05:00:42;99249.91;;;9.82;100.00
57234;BME280;43090;52.604;13.318;2023-04-01T05:03:08;99247.09;;;9.74;100.00
57234;BME280;43090;52.604;13.318;2023-04-01T05:05:38;99247.78;;;9.76;100.00
57234;BME280;43090;52.604;13.318;2023-04-01T05:08:10;99253.56;;;9.81;100.00
57234;BME280;43090;52.604;13.318;2023-04-01T05:10:37;99262.97;;;9.85;100.00
57234;BME280;43090;52.604;13.318;2023-04-01T05:13:03;99259.19;;;9.78;100.00
57234;BME280;43090;52.604;13.318;2023-04-01T05:15:29;99256.22;;;9.81;100.00
57234;BME280;43090;52.604;13.318;2023-04-01T05:17:56;99254.81;;;9.87;100.00
57234;BME280;43090;52.604;13.318;2023-04-01T05:20:23;99262.69;;;9.88;100.00
57234;BME280;43090;52.604;13.318;2023-04-01T05:22:49;99265.94;;;9.92;100.00
57234;BME280;43090;52.604;13.318;2023-04-01T05:25:16;99266.78;;;9.92;100.00
57234;BME280;43090;52.604;13.318;2023-04-01T05:27:42;99268.34;;;9.95;100.00
57234;BME280;43090;52.604;13.318;2023-04-01T05:30:09;99263.00;;;9.95;100.00
57234;BME280;43090;52.604;13.318;2023-04-01T05:32:35;99275.19;;;9.97;100.00
57234;BME280;43090;52.604;13.318;2023-04-01T05:35:02;99279.44;;;9.90;100.00
57234;BME280;43090;52.604;13.318;2023-04-01T05:37:28;99281.25;;;9.80;100.00
57234;BME280;43090;52.604;13.318;2023-04-01T05:39:55;99271.16;;;9.74;100.00
57234;BME280;43090;52.604;13.318;2023-04-01T05:42:21;99277.59;;;9.81;100.00
57234;BME280;43090;52.604;13.318;2023-04-01T05:44:48;99279.44;;;9.90;100.00
57234;BME280;43090;52.604;13.318;2023-04-01T05:47:14;99275.06;;;9.89;100.00
57234;BME280;43090;52.604;13.318;2023-04-01T05:49:40;99280.13;;;9.82;100.00
57234;BME280;43090;52.604;13.318;2023-04-01T05:52:07;99281.53;;;9.87;100.00
57234;BME280;43090;52.604;13.318;2023-04-01T05:54:33;99279.16;;;9.93;100.00
57234;BME280;43090;52.604;13.318;2023-04-01T05:57:00;99283.22;;;9.97;100.00
57234;BME280;43090;52.604;13.318;2023-04-01T05:59:26;99294.63;;;9.99;100.00
57234;BME280;43090;52.604;13.318;2023-04-01T06:01:52;99293.38;;;10.04;100.00
57234;BME280;43090;52.604;13.318;2023-04-01T06:04:19;99292.69;;;10.02;100.00
57234;BME280;43090;52.604;13.318;2023-04-01T06:06:46;99294.91;;;10.06;100.00
57234;BME280;43090;52.604;13.318;2023-04-01T06:09:16;99290.41;;;10.07;100.00
57234;BME280;43090;52.604;13.318;2023-04-01T06:14:33;99291.94;;;10.09;100.00
57234;BME280;43090;52.604;13.318;2023-04-01T06:27:49;99314.47;;;10.16;100.00
57234;BME280;43090;52.604;13.318;2023-04-01T06:30:35;99318.72;;;10.19;100.00
57234;BME280;43090;52.604;13.318;2023-04-01T06:35:54;99321.81;;;10.24;100.00
57234;BME280;43090;52.604;13.318;2023-04-01T06:38:32;99325.16;;;10.26;100.00
57234;BME280;43090;52.604;13.318;2023-04-01T06:41:14;99330.66;;;10.25;100.00
57234;BME280;43090;52.604;13.318;2023-04-01T06:46:41;99331.63;;;10.24;100.00
57234;BME280;43090;52.604;13.318;2023-04-01T06:51:59;99333.59;;;10.31;100.00
57234;BME280;43090;52.604;13.318;2023-04-01T06:57:05;99328.41;;;10.40;100.00
57234;BME280;43090;52.604;13.318;2023-04-01T06:59:42;99327.44;;;10.41;100.00
57234;BME280;43090;52.604;13.318;2023-04-01T07:04:43;99338.41;;;10.47;100.00
57234;BME280;43090;52.604;13.318;2023-04-01T07:09:56;99337.72;;;10.45;100.00
57234;BME280;43090;52.604;13.318;2023-04-01T07:12:34;99344.63;;;10.48;100.00
57234;BME280;43090;52.604;13.318;2023-04-01T07:15:06;99343.50;;;10.50;100.00
57234;BME280;43090;52.604;13.318;2023-04-01T07:17:39;99347.00;;;10.51;100.00
57234;BME280;43090;52.604;13.318;2023-04-01T07:20:20;99349.97;;;10.48;100.00
57234;BME280;43090;52.604;13.318;2023-04-01T07:22:52;99349.41;;;10.44;100.00
57234;BME280;43090;52.604;13.318;2023-04-01T07:25:22;99344.91;;;10.35;100.00
57234;BME280;43090;52.604;13.318;2023-04-01T07:27:52;99351.94;;;10.46;100.00
57234;BME280;43090;52.604;13.318;2023-04-01T07:30:21;99362.63;;;10.46;100.00
57234;BME280;43090;52.604;13.318;2023-04-01T07:32:51;99356.47;;;10.45;100.00
57234;BME280;43090;52.604;13.318;2023-04-01T07:35:27;99358.97;;;10.47;100.00
57234;BME280;43090;52.604;13.318;2023-04-01T07:45:56;99364.00;;;10.01;100.00
57234;BME280;43090;52.604;13.318;2023-04-01T07:48:29;99369.94;;;10.24;100.00
57234;BME280;43090;52.604;13.318;2023-04-01T07:51:10;99367.66;;;10.00;100.00
57234;BME280;43090;52.604;13.318;2023-04-01T07:56:15;99376.38;;;9.32;100.00
57234;BME280;43090;52.604;13.318;2023-04-01T07:58:52;99386.59;;;8.96;100.00
57234;BME280;43090;52.604;13.318;2023-04-01T08:06:18;99401.59;;;9.18;100.00
57234;BME280;43090;52.604;13.318;2023-04-01T08:12:42;99396.03;;;9.00;100.00
57234;BME280;43090;52.604;13.318;2023-04-01T08:14:39;99408.22;;;8.93;100.00
57234;BME280;43090;52.604;13.318;2023-04-01T08:17:12;99407.06;;;8.86;100.00
57234;BME280;43090;52.604;13.318;2023-04-01T08:22:40;99416.34;;;8.49;100.00
57234;BME280;43090;52.604;13.318;2023-04-01T08:25:05;99411.00;;;8.49;100.00
57234;BME280;43090;52.604;13.318;2023-04-01T08:27:35;99421.47;;;8.29;100.00
57234;BME280;43090;52.604;13.318;2023-04-01T08:30:15;99414.66;;;8.37;100.00
57234;BME280;43090;52.604;13.318;2023-04-01T08:32:44;99418.31;;;8.36;100.00
57234;BME280;43090;52.604;13.318;2023-04-01T08:35:27;99425.53;;;8.56;100.00
57234;BME280;43090;52.604;13.318;2023-04-01T08:38:00;99420.59;;;8.40;100.00
57234;BME280;43090;52.604;13.318;2023-04-01T08:40:33;99439.13;;;8.42;100.00
57234;BME280;43090;52.604;13.318;2023-04-01T08:48:46;99438.50;;;8.17;100.00
57234;BME280;43090;52.604;13.318;2023-04-01T08:51:16;99438.63;;;8.48;100.00
57234;BME280;43090;52.604;13.318;2023-04-01T08:59:22;99447.16;;;8.30;100.00
57234;BME280;43090;52.604;13.318;2023-04-01T09:01:54;99451.81;;;8.28;100.00
57234;BME280;43090;52.604;13.318;2023-04-01T09:04:32;99451.47;;;8.22;100.00
57234;BME280;43090;52.604;13.318;2023-04-01T09:10:01;99452.38;;;8.32;100.00
57234;BME280;43090;52.604;13.318;2023-04-01T09:17:50;99462.66;;;8.48;100.00
57234;BME280;43090;52.604;13.318;2023-04-01T09:20:27;99464.81;;;8.10;100.00
57234;BME280;43090;52.604;13.318;2023-04-01T09:28:18;99467.97;;;8.48;100.00
57234;BME280;43090;52.604;13.318;2023-04-01T09:31:05;99463.09;;;8.21;100.00
57234;BME280;43090;52.604;13.318;2023-04-01T09:38:54;99483.16;;;8.47;100.00
57234;BME280;43090;52.604;13.318;2023-04-01T09:43:54;99488.53;;;8.69;100.00
57234;BME280;43090;52.604;13.318;2023-04-01T09:46:31;99484.22;;;8.56;100.00
57234;BME280;43090;52.604;13.318;2023-04-01T10:03:11;99503.72;;;8.68;100.00
57234;BME280;43090;52.604;13.318;2023-04-01T10:06:06;99521.13;;;9.05;100.00
57234;BME280;43090;52.604;13.318;2023-04-01T10:14:17;99520.94;;;8.64;100.00
57234;BME280;43090;52.604;13.318;2023-04-01T10:19:55;99529.13;;;8.28;100.00
57234;BME280;43090;52.604;13.318;2023-04-01T10:41:08;99538.13;;;7.93;100.00
57234;BME280;43090;52.604;13.318;2023-04-01T11:01:22;99549.28;;;7.76;100.00
57234;BME280;43090;52.604;13.318;2023-04-01T11:04:02;99554.47;;;7.77;100.00
57234;BME280;43090;52.604;13.318;2023-04-01T11:06:49;99559.94;;;7.98;100.00
57234;BME280;43090;52.604;13.318;2023-04-01T11:23:03;99572.28;;;7.77;100.00
57234;BME280;43090;52.604;13.318;2023-04-01T11:31:11;99580.00;;;7.68;100.00
57234;BME280;43090;52.604;13.318;2023-04-01T11:33:46;99585.47;;;7.90;100.00
57234;BME280;43090;52.604;13.318;2023-04-01T11:44:11;99592.91;;;7.86;100.00
57234;BME280;43090;52.604;13.318;2023-04-01T11:46:57;99594.91;;;7.71;100.00
57234;BME280;43090;52.604;13.318;2023-04-01T11:52:19;99604.44;;;7.51;100.00
57234;BME280;43090;52.604;13.318;2023-04-01T11:54:53;99605.41;;;7.50;100.00
57234;BME280;43090;52.604;13.318;2023-04-01T11:57:29;99609.81;;;7.74;100.00
57234;BME280;43090;52.604;13.318;2023-04-01T12:02:46;99618.19;;;7.80;100.00
57234;BME280;43090;52.604;13.318;2023-04-01T12:05:21;99620.16;;;7.43;100.00
57234;BME280;43090;52.604;13.318;2023-04-01T12:07:53;99626.13;;;7.46;100.00
57234;BME280;43090;52.604;13.318;2023-04-01T12:10:26;99628.97;;;7.67;100.00
57234;BME280;43090;52.604;13.318;2023-04-01T12:20:48;99641.16;;;7.59;100.00
57234;BME280;43090;52.604;13.318;2023-04-01T12:23:20;99642.13;;;7.58;100.00
57234;BME280;43090;52.604;13.318;2023-04-01T12:26:00;99647.94;;;7.52;100.00
57234;BME280;43090;52.604;13.318;2023-04-01T12:31:18;99647.38;;;7.71;100.00
57234;BME280;43090;52.604;13.318;2023-04-01T12:36:35;99657.41;;;7.67;100.00
57234;BME280;43090;52.604;13.318;2023-04-01T12:41:49;99664.38;;;7.45;100.00
57234;BME280;43090;52.604;13.318;2023-04-01T13:00:12;99679.78;;;7.64;100.00
57234;BME280;43090;52.604;13.318;2023-04-01T13:08:04;99699.44;;;7.15;100.00
57234;BME280;43090;52.604;13.318;2023-04-01T13:10:43;99698.19;;;7.08;100.00
57234;BME280;43090;52.604;13.318;2023-04-01T13:13:18;99709.41;;;7.00;100.00
57234;BME280;43090;52.604;13.318;2023-04-01T13:21:23;99715.84;;;7.09;100.00
57234;BME280;43090;52.604;13.318;2023-04-01T13:24:05;99716.34;;;7.27;100.00
57234;BME280;43090;52.604;13.318;2023-04-01T13:26:55;99725.91;;;7.29;100.00
57234;BME280;43090;52.604;13.318;2023-04-01T13:29:38;99726.50;;;7.09;100.00
57234;BME280;43090;52.604;13.318;2023-04-01T13:32:13;99729.91;;;7.11;100.00
57234;BME280;43090;52.604;13.318;2023-04-01T13:34:47;99731.69;;;6.86;100.00
57234;BME280;43090;52.604;13.318;2023-04-01T13:42:12;99739.91;;;7.20;100.00
57234;BME280;43090;52.604;13.318;2023-04-01T13:44:45;99741.41;;;7.11;100.00
57234;BME280;43090;52.604;13.318;2023-04-01T13:47:20;99749.34;;;7.24;100.00
57234;BME280;43090;52.604;13.318;2023-04-01T14:06:02;99761.06;;;6.84;100.00
57234;BME280;43090;52.604;13.318;2023-04-01T14:11:13;99761.72;;;6.75;100.00
57234;BME280;43090;52.604;13.318;2023-04-01T14:14:04;99769.81;;;6.61;100.00
57234;BME280;43090;52.604;13.318;2023-04-01T14:19:21;99779.41;;;6.63;100.00
57234;BME280;43090;52.604;13.318;2023-04-01T14:21:58;99782.28;;;6.47;100.00
57234;BME280;43090;52.604;13.318;2023-04-01T14:24:42;99787.50;;;6.75;100.00
57234;BME280;43090;52.604;13.318;2023-04-01T14:29:55;99796.53;;;6.46;100.00
57234;BME280;43090;52.604;13.318;2023-04-01T14:32:30;99784.53;;;6.54;100.00
57234;BME280;43090;52.604;13.318;2023-04-01T14:35:15;99786.19;;;6.67;100.00
57234;BME280;43090;52.604;13.318;2023-04-01T14:37:56;99800.63;;;6.89;100.00
57234;BME280;43090;52.604;13.318;2023-04-01T14:40:48;99798.97;;;6.62;100.00
57234;BME280;43090;52.604;13.318;2023-04-01T14:45:54;99807.78;;;6.89;100.00
57234;BME280;43090;52.604;13.318;2023-04-01T14:51:02;99813.13;;;6.50;100.00
57234;BME280;43090;52.604;13.318;2023-04-01T14:53:34;99810.03;;;6.30;100.00
57234;BME280;43090;52.604;13.318;2023-04-01T14:56:04;99811.75;;;6.44;100.00
57234;BME280;43090;52.604;13.318;2023-04-01T14:58:40;99819.59;;;6.59;100.00
57234;BME280;43090;52.604;13.318;2023-04-01T15:11:53;99842.50;;;6.08;100.00
57234;BME280;43090;52.604;13.318;2023-04-01T15:14:25;99841.59;;;5.95;100.00
57234;BME280;43090;52.604;13.318;2023-04-01T15:16:58;99845.22;;;6.34;100.00
57234;BME280;43090;52.604;13.318;2023-04-01T15:22:37;99853.56;;;6.02;100.00
57234;BME280;43090;52.604;13.318;2023-04-01T15:27:58;99863.06;;;5.92;100.00
57234;BME280;43090;52.604;13.318;2023-04-01T15:30:35;99862.53;;;6.27;100.00
57234;BME280;43090;52.604;13.318;2023-04-01T15:36:00;99867.00;;;6.26;100.00
57234;BME280;43090;52.604;13.318;2023-04-01T15:38:33;99866.50;;;6.34;100.00
57234;BME280;43090;52.604;13.318;2023-04-01T15:41:06;99881.25;;;6.25;100.00
57234;BME280;43090;52.604;13.318;2023-04-01T15:43:40;99873.16;;;6.14;100.00
57234;BME280;43090;52.604;13.318;2023-04-01T15:54:06;99893.00;;;5.81;100.00
57234;BME280;43090;52.604;13.318;2023-04-01T15:56:44;99905.03;;;5.72;100.00
57234;BME280;43090;52.604;13.318;2023-04-01T15:59:18;99915.13;;;6.09;100.00
57234;BME280;43090;52.604;13.318;2023-04-01T16:01:57;99912.47;;;6.09;100.00
57234;BME280;43090;52.604;13.318;2023-04-01T16:04:42;99911.88;;;6.18;100.00
57234;BME280;43090;52.604;13.318;2023-04-01T16:12:47;99933.25;;;5.60;100.00
57234;BME280;43090;52.604;13.318;2023-04-01T16:18:27;99940.66;;;5.55;100.00
57234;BME280;43090;52.604;13.318;2023-04-01T16:21:03;99937.78;;;5.58;100.00
57234;BME280;43090;52.604;13.318;2023-04-01T16:23:56;99948.50;;;5.71;100.00
57234;BME280;43090;52.604;13.318;2023-04-01T16:26:26;99956.00;;;5.36;100.00
57234;BME280;43090;52.604;13.318;2023-04-01T16:28:56;99958.59;;;5.37;100.00
57234;BME280;43090;52.604;13.318;2023-04-01T16:31:30;99965.88;;;5.62;100.00
57234;BME280;43090;52.604;13.318;2023-04-01T16:34:08;99970.06;;;5.38;100.00
57234;BME280;43090;52.604;13.318;2023-04-01T16:36:41;99976.31;;;5.37;100.00
57234;BME280;43090;52.604;13.318;2023-04-01T16:39:15;99974.31;;;5.55;100.00
57234;BME280;43090;52.604;13.318;2023-04-01T16:41:48;99974.59;;;5.50;100.00
57234;BME280;43090;52.604;13.318;2023-04-01T16:44:19;99977.44;;;5.32;100.00
57234;BME280;43090;52.604;13.318;2023-04-01T16:46:49;99986.81;;;5.38;100.00
57234;BME280;43090;52.604;13.318;2023-04-01T16:49:23;99984.44;;;5.19;100.00
57234;BME280;43090;52.604;13.318;2023-04-01T16:56:45;100005.81;;;5.32;100.00
57234;BME280;43090;52.604;13.318;2023-04-01T16:59:15;100012.59;;;5.07;100.00
57234;BME280;43090;52.604;13.318;2023-04-01T17:01:53;100022.97;;;4.96;100.00
57234;BME280;43090;52.604;13.318;2023-04-01T17:04:37;100023.09;;;5.09;100.00
57234;BME280;43090;52.604;13.318;2023-04-01T17:15:04;100045.69;;;5.16;100.00
57234;BME280;43090;52.604;13.318;2023-04-01T17:20:29;100053.41;;;5.05;100.00
57234;BME280;43090;52.604;13.318;2023-04-01T17:23:34;100060.59;;;5.03;100.00
57234;BME280;43090;52.604;13.318;2023-04-01T17:25:53;100064.88;;;5.05;100.00
57234;BME280;43090;52.604;13.318;2023-04-01T17:28:40;100071.75;;;4.93;100.00
57234;BME280;43090;52.604;13.318;2023-04-01T17:31:27;100068.88;;;4.82;100.00
57234;BME280;43090;52.604;13.318;2023-04-01T17:33:59;100079.16;;;4.72;100.00
57234;BME280;43090;52.604;13.318;2023-04-01T17:40:06;100081.91;;;4.71;100.00
57234;BME280;43090;52.604;13.318;2023-04-01T17:42:53;100100.84;;;4.64;100.00
57234;BME280;43090;52.604;13.318;2023-04-01T17:45:24;100105.69;;;4.56;100.00
57234;BME280;43090;52.604;13.318;2023-04-01T17:53:54;100107.06;;;4.47;100.00
57234;BME280;43090;52.604;13.318;2023-04-01T17:56:18;100122.81;;;4.50;100.00
57234;BME280;43090;52.604;13.318;2023-04-01T17:58:59;100116.81;;;4.47;100.00
57234;BME280;43090;52.604;13.318;2023-04-01T18:01:36;100122.38;;;4.74;100.00
57234;BME280;43090;52.604;13.318;2023-04-01T18:09:44;100141.25;;;4.36;100.00
57234;BME280;43090;52.604;13.318;2023-04-01T18:12:19;100142.56;;;4.29;100.00
57234;BME280;43090;52.604;13.318;2023-04-01T18:20:25;100162.03;;;4.28;100.00
57234;BME280;43090;52.604;13.318;2023-04-01T18:23:09;100172.06;;;4.39;100.00
57234;BME280;43090;52.604;13.318;2023-04-01T18:25:43;100159.47;;;4.26;100.00
57234;BME280;43090;52.604;13.318;2023-04-01T18:28:21;100178.63;;;4.31;100.00
57234;BME280;43090;52.604;13.318;2023-04-01T18:31:05;100178.91;;;4.09;100.00
57234;BME280;43090;52.604;13.318;2023-04-01T18:39:02;100189.72;;;4.22;100.00
57234;BME280;43090;52.604;13.318;2023-04-01T18:41:40;100195.66;;;4.27;100.00
57234;BME280;43090;52.604;13.318;2023-04-01T18:49:46;100216.72;;;4.62;100.00
57234;BME280;43090;52.604;13.318;2023-04-01T18:52:25;100224.75;;;4.45;100.00
57234;BME280;43090;52.604;13.318;2023-04-01T19:06:58;100242.84;;;4.37;100.00
57234;BME280;43090;52.604;13.318;2023-04-01T19:09:53;100262.38;;;4.00;100.00